Time;durP1;ratioP1;P1;durP2;ratioP2;P2;SDS_P1;SDS_P2;PMS_P1;PMS_P2;Temp;Humidity;BMP_temperature;BMP_pressure;BME280_temperature;BME280_humidity;BME280_pressure;Samples;Min_cycle;Max_cycle;Signal;HPM_P1;HPM_P2
2021/08/20 00:00:57;;;;;;;5.03;4.63;;;17.20;99.90;;;;;;5031028;28;20195;-70
2021/08/20 00:03:23;;;;;;;4.43;4.03;;;17.30;99.90;;;;;;5030873;28;20580;-70
2021/08/20 00:05:48;;;;;;;4.87;4.47;;;17.30;99.90;;;;;;5031304;28;20257;-69
2021/08/20 00:08:13;;;;;;;4.30;3.90;;;17.30;99.90;;;;;;5030993;28;20554;-69
2021/08/20 00:10:39;;;;;;;4.30;3.90;;;17.30;99.90;;;;;;5031603;28;20181;-69
2021/08/20 00:13:04;;;;;;;4.20;3.83;;;17.30;99.90;;;;;;5030613;28;20195;-69
2021/08/20 00:15:33;;;;;;;4.70;4.20;;;17.30;99.90;;;;;;5031083;28;20637;-69
2021/08/20 00:17:58;;;;;;;4.23;3.83;;;17.30;99.90;;;;;;5031154;28;20209;-69
2021/08/20 00:20:24;;;;;;;5.23;4.67;;;17.30;99.90;;;;;;5030921;28;20936;-69
2021/08/20 00:22:50;;;;;;;5.20;4.70;;;17.30;99.90;;;;;;5030862;28;20223;-68
2021/08/20 00:25:15;;;;;;;5.90;4.63;;;17.30;99.90;;;;;;5030929;28;20413;-70
2021/08/20 00:27:41;;;;;;;7.27;4.43;;;17.30;99.90;;;;;;5030683;28;20183;-69
2021/08/20 00:30:08;;;;;;;4.87;4.47;;;17.30;99.90;;;;;;5030900;28;20249;-69
2021/08/20 00:32:37;;;;;;;4.80;4.00;;;17.30;99.90;;;;;;5033842;28;20214;-69
2021/08/20 00:35:04;;;;;;;6.50;5.90;;;17.30;99.90;;;;;;5034759;28;20408;-69
2021/08/20 00:37:29;;;;;;;7.17;5.37;;;17.30;99.90;;;;;;5034665;28;20409;-69
2021/08/20 00:39:56;;;;;;;5.17;4.67;;;17.30;99.90;;;;;;5033305;28;20721;-69
2021/08/20 00:42:22;;;;;;;5.57;5.07;;;17.30;99.90;;;;;;5034278;28;20190;-69
2021/08/20 00:44:47;;;;;;;4.60;4.20;;;17.30;99.90;;;;;;5034553;28;20406;-69
2021/08/20 00:47:13;;;;;;;6.07;5.57;;;17.30;99.90;;;;;;5034497;28;20254;-69
2021/08/20 00:49:38;;;;;;;5.90;4.97;;;17.30;99.90;;;;;;5034494;28;20671;-69
2021/08/20 00:52:05;;;;;;;5.43;4.93;;;17.20;99.90;;;;;;5034342;28;20197;-70
2021/08/20 00:54:30;;;;;;;6.87;5.60;;;17.20;99.90;;;;;;5034356;28;20724;-69
2021/08/20 00:56:56;;;;;;;4.57;4.17;;;17.30;99.90;;;;;;5034029;28;20508;-68
2021/08/20 00:59:24;;;;;;;5.00;4.50;;;17.20;99.90;;;;;;5032981;28;20235;-69
2021/08/20 01:01:50;;;;;;;6.10;5.53;;;17.20;99.90;;;;;;5034132;28;20188;-70
2021/08/20 01:04:16;;;;;;;5.30;4.87;;;17.20;99.90;;;;;;5034079;28;20915;-69
2021/08/20 01:06:41;;;;;;;8.00;5.57;;;17.20;99.90;;;;;;5034156;28;20539;-68
2021/08/20 01:09:08;;;;;;;6.80;5.20;;;17.10;99.90;;;;;;5034016;28;20170;-69
2021/08/20 01:11:34;;;;;;;5.33;4.20;;;17.10;99.90;;;;;;5033764;28;20507;-69
2021/08/20 01:14:00;;;;;;;4.57;4.17;;;17.10;99.90;;;;;;5033954;28;20505;-69
2021/08/20 01:16:27;;;;;;;4.90;3.90;;;17.10;99.90;;;;;;5034016;28;20408;-69
2021/08/20 01:18:52;;;;;;;4.90;4.40;;;17.00;99.90;;;;;;5033787;28;20405;-71
2021/08/20 01:21:21;;;;;;;5.63;5.10;;;17.00;99.90;;;;;;5033886;28;20568;-69
2021/08/20 01:23:48;;;;;;;4.53;4.13;;;17.00;99.90;;;;;;5033855;28;20512;-69
2021/08/20 01:26:15;;;;;;;4.20;3.80;;;16.90;99.90;;;;;;5033700;28;20972;-69
2021/08/20 01:28:40;;;;;;;4.47;4.03;;;16.90;99.90;;;;;;5033950;28;20507;-69
2021/08/20 01:31:14;;;;;;;4.40;4.00;;;16.90;99.90;;;;;;5033461;28;20543;-67
2021/08/20 01:33:40;;;;;;;4.97;4.27;;;16.90;99.90;;;;;;5032485;28;20229;-69
2021/08/20 01:36:08;;;;;;;5.60;4.20;;;17.00;99.90;;;;;;5033552;28;20458;-69
2021/08/20 01:38:42;;;;;;;5.97;4.70;;;17.00;99.90;;;;;;5033631;28;20401;-69
2021/08/20 01:41:08;;;;;;;4.63;4.23;;;17.00;99.90;;;;;;5033301;28;20412;-69
2021/08/20 01:43:33;;;;;;;4.97;4.47;;;17.00;99.90;;;;;;5033211;28;20891;-69
2021/08/20 01:45:59;;;;;;;5.50;5.00;;;17.00;99.90;;;;;;5033363;28;20171;-69
2021/08/20 01:48:24;;;;;;;5.00;3.90;;;17.00;99.90;;;;;;5033445;28;20206;-67
2021/08/20 01:50:49;;;;;;;6.70;5.13;;;17.00;99.90;;;;;;5033259;28;20170;-67
2021/08/20 01:53:16;;;;;;;6.63;4.77;;;17.00;99.90;;;;;;5033012;28;20678;-68
2021/08/20 01:55:44;;;;;;;5.00;4.37;;;17.00;99.90;;;;;;5033246;28;20257;-67
2021/08/20 01:58:09;;;;;;;5.00;4.23;;;17.00;99.90;;;;;;5033135;28;20405;-68
2021/08/20 02:00:35;;;;;;;5.37;4.23;;;17.00;99.90;;;;;;5033043;28;20808;-67
2021/08/20 02:03:01;;;;;;;5.73;5.07;;;17.00;99.90;;;;;;5032913;28;20433;-67
2021/08/20 02:05:26;;;;;;;4.00;3.60;;;17.00;99.90;;;;;;5033011;28;20269;-67
2021/08/20 02:07:52;;;;;;;4.73;4.27;;;17.00;99.90;;;;;;5032928;28;20398;-67
2021/08/20 02:10:17;;;;;;;4.57;4.17;;;17.00;99.90;;;;;;5032963;28;20272;-67
2021/08/20 02:12:43;;;;;;;5.00;4.43;;;16.90;99.90;;;;;;5032758;28;20689;-67
2021/08/20 02:15:09;;;;;;;5.57;4.80;;;16.90;99.90;;;;;;5032896;28;20213;-67
2021/08/20 02:17:35;;;;;;;5.13;4.63;;;16.90;99.90;;;;;;5032726;28;20660;-68
2021/08/20 02:20:00;;;;;;;4.80;4.40;;;16.90;99.90;;;;;;5032977;28;20446;-67
2021/08/20 02:22:26;;;;;;;4.33;3.93;;;16.90;99.90;;;;;;5032732;28;20236;-67
2021/08/20 02:24:54;;;;;;;3.50;3.20;;;16.90;99.90;;;;;;5032953;28;20235;-66
2021/08/20 02:27:20;;;;;;;4.33;3.93;;;16.90;99.90;;;;;;5032530;28;20401;-69
2021/08/20 02:29:46;;;;;;;5.07;4.40;;;16.90;99.90;;;;;;5032555;28;20410;-67
2021/08/20 02:32:11;;;;;;;5.20;4.70;;;16.90;99.90;;;;;;5032603;28;20489;-66
2021/08/20 02:34:37;;;;;;;5.57;5.07;;;16.90;99.90;;;;;;5032500;28;20541;-67
2021/08/20 02:37:03;;;;;;;6.47;5.53;;;16.90;99.90;;;;;;5032307;28;20163;-67
2021/08/20 02:39:29;;;;;;;5.37;4.87;;;16.90;99.90;;;;;;5032368;28;20163;-67
2021/08/20 02:41:55;;;;;;;5.10;4.70;;;16.90;99.90;;;;;;5032227;28;20510;-67
2021/08/20 02:44:20;;;;;;;4.50;3.90;;;16.90;99.90;;;;;;5032122;28;20567;-68
2021/08/20 02:46:45;;;;;;;6.47;4.80;;;16.90;99.90;;;;;;5032412;28;20178;-67
2021/08/20 02:49:11;;;;;;;5.13;4.70;;;16.90;99.90;;;;;;5032194;28;20187;-67
2021/08/20 02:51:36;;;;;;;4.70;4.20;;;16.90;99.90;;;;;;5032079;28;20320;-68
2021/08/20 02:54:02;;;;;;;5.37;4.87;;;16.90;99.90;;;;;;5031630;28;20200;-68
2021/08/20 02:56:28;;;;;;;6.23;5.60;;;16.90;99.90;;;;;;5032081;28;20678;-67
2021/08/20 02:58:53;;;;;;;4.97;4.40;;;16.90;99.90;;;;;;5031887;28;20417;-67
2021/08/20 03:01:19;;;;;;;5.30;4.17;;;16.90;99.90;;;;;;5031843;28;20170;-70
2021/08/20 03:03:45;;;;;;;4.20;3.90;;;16.80;99.90;;;;;;5031719;28;20568;-67
2021/08/20 03:06:10;;;;;;;5.73;4.83;;;16.80;99.90;;;;;;5032317;28;20173;-67
2021/08/20 03:08:38;;;;;;;4.70;4.20;;;16.80;99.90;;;;;;5031883;28;20534;-67
2021/08/20 03:11:04;;;;;;;5.50;4.80;;;16.90;99.90;;;;;;5031667;28;20179;-68
2021/08/20 03:13:30;;;;;;;6.13;5.40;;;16.90;99.90;;;;;;5031746;28;20456;-68
2021/08/20 03:15:55;;;;;;;6.57;5.37;;;16.90;99.90;;;;;;5031925;28;20170;-68
2021/08/20 03:18:21;;;;;;;5.87;4.73;;;16.80;99.90;;;;;;5031848;28;20269;-67
2021/08/20 03:20:47;;;;;;;5.13;4.67;;;16.80;99.90;;;;;;5031981;28;20447;-66
2021/08/20 03:23:12;;;;;;;5.40;4.90;;;16.90;99.90;;;;;;5031602;28;20194;-67
2021/08/20 03:25:38;;;;;;;8.00;6.07;;;16.90;99.90;;;;;;5031766;28;20513;-68
2021/08/20 03:28:06;;;;;;;10.00;6.57;;;16.90;99.90;;;;;;5031329;28;20664;-67
2021/08/20 03:30:33;;;;;;;5.53;5.03;;;16.80;99.90;;;;;;5031555;28;20320;-68
2021/08/20 03:32:59;;;;;;;4.77;4.37;;;16.90;99.90;;;;;;5031343;28;20913;-66
2021/08/20 03:35:25;;;;;;;5.53;4.30;;;16.90;99.90;;;;;;5031346;28;20494;-68
2021/08/20 03:37:51;;;;;;;6.47;5.37;;;16.90;99.90;;;;;;5031185;28;20272;-67
2021/08/20 03:40:16;;;;;;;5.40;4.80;;;16.90;99.90;;;;;;5031431;28;20840;-68
2021/08/20 03:42:42;;;;;;;6.53;4.33;;;16.90;99.90;;;;;;5031084;28;20278;-68
2021/08/20 03:45:08;;;;;;;6.27;5.17;;;16.90;99.90;;;;;;5031327;28;20612;-67
2021/08/20 03:47:35;;;;;;;6.50;5.20;;;16.90;99.90;;;;;;5031336;28;20185;-67
2021/08/20 03:50:02;;;;;;;7.10;5.37;;;16.90;99.90;;;;;;5031246;28;20178;-67
2021/08/20 03:52:28;;;;;;;6.23;5.63;;;16.80;99.90;;;;;;5031067;28;20441;-67
2021/08/20 03:54:53;;;;;;;5.67;5.07;;;16.80;99.90;;;;;;5031228;28;20742;-67
2021/08/20 03:57:19;;;;;;;5.80;5.17;;;16.80;99.90;;;;;;5030929;28;20632;-67
2021/08/20 03:59:44;;;;;;;6.70;5.00;;;16.90;99.90;;;;;;5031137;28;20207;-68
2021/08/20 04:02:10;;;;;;;6.67;5.13;;;16.90;99.90;;;;;;5031063;28;20185;-67
2021/08/20 04:04:35;;;;;;;4.83;4.40;;;16.90;99.90;;;;;;5030969;28;20225;-67
2021/08/20 04:07:02;;;;;;;6.07;5.47;;;16.90;99.90;;;;;;5034753;28;20252;-67
2021/08/20 04:09:28;;;;;;;6.00;5.40;;;16.90;99.90;;;;;;5035169;28;20189;-67
2021/08/20 04:11:53;;;;;;;6.70;5.07;;;16.80;99.90;;;;;;5034906;28;20428;-67
2021/08/20 04:14:19;;;;;;;6.90;6.20;;;16.80;99.90;;;;;;5035002;28;20197;-69
2021/08/20 04:16:44;;;;;;;7.27;6.37;;;16.80;99.90;;;;;;5035143;28;20166;-67
2021/08/20 04:19:10;;;;;;;5.47;4.80;;;16.80;99.90;;;;;;5035417;28;20168;-67
2021/08/20 04:21:35;;;;;;;5.80;5.20;;;16.80;99.90;;;;;;5034891;28;20190;-68
2021/08/20 04:24:01;;;;;;;6.77;5.80;;;16.80;99.90;;;;;;5035009;28;20231;-68
2021/08/20 04:26:27;;;;;;;6.60;5.80;;;16.80;99.90;;;;;;5034777;28;20676;-67
2021/08/20 04:28:52;;;;;;;5.73;5.13;;;16.80;99.90;;;;;;5034886;28;20181;-68
2021/08/20 04:31:18;;;;;;;6.30;5.63;;;16.80;99.90;;;;;;5034795;28;20268;-68
2021/08/20 04:33:44;;;;;;;7.77;5.80;;;16.80;99.90;;;;;;5034940;28;20208;-69
2021/08/20 04:36:10;;;;;;;6.33;5.00;;;16.80;99.90;;;;;;5034987;28;20894;-69
2021/08/20 04:38:38;;;;;;;8.70;5.67;;;16.80;99.90;;;;;;5034561;28;20169;-68
2021/08/20 04:41:07;;;;;;;5.90;4.87;;;16.80;99.90;;;;;;5034890;28;20412;-69
2021/08/20 04:43:34;;;;;;;5.90;5.30;;;16.90;99.90;;;;;;5034729;28;20802;-68
2021/08/20 04:46:00;;;;;;;7.20;6.00;;;16.80;99.90;;;;;;5034537;28;20498;-68
2021/08/20 04:48:25;;;;;;;5.63;5.13;;;16.70;99.90;;;;;;5034424;28;20564;-68
2021/08/20 04:50:52;;;;;;;8.87;5.70;;;16.60;99.90;;;;;;5034536;28;20176;-68
2021/08/20 04:53:22;;;;;;;6.40;5.73;;;16.60;99.90;;;;;;5034331;28;20210;-68
2021/08/20 04:55:47;;;;;;;8.63;5.93;;;16.60;99.90;;;;;;5034373;28;20808;-68
2021/08/20 04:58:13;;;;;;;6.33;5.60;;;16.60;99.90;;;;;;5034553;28;20414;-68
2021/08/20 05:00:43;;;;;;;6.53;5.87;;;16.50;99.90;;;;;;5034472;28;20248;-68
2021/08/20 05:03:08;;;;;;;7.40;5.70;;;16.50;99.90;;;;;;5034131;28;20201;-68
2021/08/20 05:05:34;;;;;;;7.03;6.17;;;16.50;99.90;;;;;;5034158;28;20534;-68
2021/08/20 05:07:59;;;;;;;6.47;5.00;;;16.50;99.90;;;;;;5033911;28;20173;-69
2021/08/20 05:10:28;;;;;;;6.40;5.80;;;16.50;99.90;;;;;;5034076;28;20606;-68
2021/08/20 05:12:54;;;;;;;6.53;5.33;;;16.50;99.90;;;;;;5033751;28;20202;-68
2021/08/20 05:15:19;;;;;;;6.97;6.27;;;16.40;99.90;;;;;;5034334;28;20430;-68
2021/08/20 05:17:45;;;;;;;13.37;5.90;;;16.40;99.90;;;;;;5033287;28;20172;-69
2021/08/20 05:20:11;;;;;;;10.30;6.53;;;16.40;99.90;;;;;;5033918;28;20169;-68
2021/08/20 05:22:47;;;;;;;6.27;5.63;;;16.30;99.90;;;;;;5033594;28;20277;-68
2021/08/20 05:25:14;;;;;;;8.97;6.03;;;16.30;99.90;;;;;;5033809;28;20412;-70
2021/08/20 05:27:39;;;;;;;8.03;6.10;;;16.30;99.90;;;;;;5033820;28;20399;-68
2021/08/20 05:30:05;;;;;;;7.83;6.87;;;16.40;99.90;;;;;;5033815;28;20401;-68
2021/08/20 05:32:30;;;;;;;7.40;6.70;;;16.30;99.90;;;;;;5033409;28;20404;-68
2021/08/20 05:34:56;;;;;;;7.20;6.47;;;16.30;99.90;;;;;;5033946;28;20660;-68
2021/08/20 05:37:21;;;;;;;7.13;5.90;;;16.30;99.90;;;;;;5033979;28;20224;-69
2021/08/20 05:39:47;;;;;;;9.27;7.00;;;16.20;99.90;;;;;;5035977;28;20181;-68
2021/08/20 05:42:12;;;;;;;6.90;6.20;;;16.30;99.90;;;;;;5034740;28;20195;-68
2021/08/20 05:44:38;;;;;;;8.63;7.13;;;16.40;99.90;;;;;;5033459;28;20181;-69
2021/08/20 05:47:03;;;;;;;7.63;6.83;;;16.40;99.90;;;;;;5033401;28;20202;-68
2021/08/20 05:49:29;;;;;;;7.70;7.00;;;16.40;99.90;;;;;;5033255;28;20178;-68
2021/08/20 05:51:54;;;;;;;7.70;6.83;;;16.40;99.90;;;;;;5033111;28;20197;-68
2021/08/20 05:54:20;;;;;;;9.07;7.40;;;16.50;99.90;;;;;;5033309;28;20205;-69
2021/08/20 05:56:46;;;;;;;8.80;7.20;;;16.50;99.90;;;;;;5033167;28;20173;-69
2021/08/20 05:59:12;;;;;;;13.53;7.60;;;16.50;99.90;;;;;;5033509;28;20496;-70
2021/08/20 06:01:37;;;;;;;7.90;7.10;;;16.60;99.90;;;;;;5033132;28;20869;-68
2021/08/20 06:04:04;;;;;;;10.10;7.80;;;16.70;99.90;;;;;;5033047;28;20251;-69
2021/08/20 06:06:29;;;;;;;8.30;6.90;;;16.60;99.90;;;;;;5033076;28;20200;-68
2021/08/20 06:08:55;;;;;;;10.33;8.50;;;16.70;99.90;;;;;;5033404;28;20408;-69
2021/08/20 06:11:20;;;;;;;8.40;7.60;;;16.80;99.90;;;;;;5032954;28;20203;-71
2021/08/20 06:13:49;;;;;;;11.50;7.70;;;16.80;99.90;;;;;;5032990;28;20201;-68
2021/08/20 06:16:17;;;;;;;13.03;8.97;;;16.90;99.90;;;;;;5032864;28;20264;-69
2021/08/20 06:18:43;;;;;;;9.73;8.40;;;17.00;99.90;;;;;;5032993;28;20572;-69
2021/08/20 06:21:08;;;;;;;11.77;9.00;;;17.10;99.90;;;;;;5032588;28;20556;-68
2021/08/20 06:23:34;;;;;;;10.57;8.90;;;17.20;99.90;;;;;;5032773;28;20531;-68
2021/08/20 06:25:59;;;;;;;13.70;9.13;;;17.40;99.90;;;;;;5032888;28;20220;-71
2021/08/20 06:28:25;;;;;;;12.63;10.83;;;17.50;99.90;;;;;;5032100;28;20174;-69
2021/08/20 06:30:51;;;;;;;12.40;11.10;;;17.50;99.90;;;;;;5032110;28;20257;-67
2021/08/20 06:33:17;;;;;;;11.67;10.00;;;17.50;99.90;;;;;;5032393;28;20659;-67
2021/08/20 06:35:42;;;;;;;11.57;10.23;;;17.70;99.90;;;;;;5032312;28;20815;-68
2021/08/20 06:38:08;;;;;;;13.70;11.43;;;17.80;99.90;;;;;;5032515;28;20460;-68
2021/08/20 06:40:33;;;;;;;14.20;10.77;;;17.80;99.90;;;;;;5032683;28;20176;-68
2021/08/20 06:43:02;;;;;;;13.60;10.40;;;17.80;99.90;;;;;;5032662;28;20198;-67
2021/08/20 06:45:28;;;;;;;11.03;9.27;;;17.90;99.90;;;;;;5032806;28;20205;-67
2021/08/20 06:47:53;;;;;;;12.47;11.13;;;18.00;99.90;;;;;;5032423;28;20403;-67
2021/08/20 06:50:19;;;;;;;14.03;10.73;;;18.20;99.90;;;;;;5032328;28;20524;-67
2021/08/20 06:52:45;;;;;;;12.07;9.93;;;18.30;99.90;;;;;;5032090;28;20330;-68
2021/08/20 06:55:11;;;;;;;16.00;11.70;;;18.50;99.90;;;;;;5037531;28;20429;-66
2021/08/20 06:57:36;;;;;;;14.23;12.77;;;18.60;99.90;;;;;;5031958;28;20173;-67
2021/08/20 07:00:03;;;;;;;16.40;13.50;;;18.70;99.90;;;;;;5032232;28;20244;-70
2021/08/20 07:02:29;;;;;;;16.07;12.30;;;18.60;99.90;;;;;;5032148;28;20184;-74
2021/08/20 07:04:54;;;;;;;13.23;11.83;;;18.70;99.90;;;;;;5032305;28;20428;-68
2021/08/20 07:07:20;;;;;;;15.00;12.33;;;18.60;99.90;;;;;;5032234;28;20172;-68
2021/08/20 07:09:45;;;;;;;15.47;13.90;;;18.50;99.90;;;;;;5032104;28;20156;-67
2021/08/20 07:12:11;;;;;;;14.47;12.93;;;18.40;99.90;;;;;;5032158;28;20192;-68
2021/08/20 07:14:36;;;;;;;15.10;13.60;;;18.50;99.90;;;;;;5032149;28;20559;-68
2021/08/20 07:17:02;;;;;;;18.80;15.40;;;18.50;99.90;;;;;;5031900;28;20247;-67
2021/08/20 07:19:27;;;;;;;16.17;14.00;;;18.60;99.90;;;;;;5030614;28;20181;-67
2021/08/20 07:21:53;;;;;;;17.17;13.70;;;18.70;99.90;;;;;;5032064;28;20185;-67
2021/08/20 07:24:18;;;;;;;15.43;13.83;;;18.60;99.90;;;;;;5030493;28;20238;-69
2021/08/20 07:26:44;;;;;;;18.73;13.33;;;18.70;99.90;;;;;;5031926;28;20188;-71
2021/08/20 07:29:09;;;;;;;15.60;14.10;;;18.90;99.90;;;;;;5031518;28;20216;-69
2021/08/20 07:31:35;;;;;;;15.40;13.83;;;18.80;99.90;;;;;;5031484;28;20591;-68
2021/08/20 07:34:01;;;;;;;16.73;13.60;;;18.60;99.90;;;;;;5031403;28;20193;-67
2021/08/20 07:36:27;;;;;;;15.47;13.63;;;18.80;99.90;;;;;;5030924;28;20174;-68
2021/08/20 07:38:52;;;;;;;16.27;14.63;;;18.90;99.90;;;;;;5043162;28;20432;-67
2021/08/20 07:41:18;;;;;;;23.10;16.73;;;18.80;99.90;;;;;;5046082;28;20192;-67
2021/08/20 07:43:43;;;;;;;23.87;17.83;;;18.70;99.90;;;;;;5030065;28;20177;-68
2021/08/20 07:46:09;;;;;;;17.13;15.33;;;18.70;99.90;;;;;;5034689;28;20256;-67
2021/08/20 07:48:34;;;;;;;15.20;13.70;;;18.50;99.90;;;;;;5031167;28;20339;-67
2021/08/20 07:51:00;;;;;;;19.57;16.00;;;18.80;99.90;;;;;;5031414;28;20181;-67
2021/08/20 07:53:25;;;;;;;20.53;17.60;;;18.40;99.90;;;;;;5037570;28;20701;-68
2021/08/20 07:55:53;;;;;;;29.63;23.60;;;18.40;99.90;;;;;;5045426;28;20204;-68
2021/08/20 07:58:18;;;;;;;23.27;20.67;;;18.00;99.90;;;;;;5051664;28;20174;-67
2021/08/20 08:00:44;;;;;;;14.90;10.50;;;18.10;99.90;;;;;;5051486;28;20398;-67
2021/08/20 08:03:09;;;;;;;8.90;8.00;;;18.10;99.90;;;;;;5050266;28;20182;-67
2021/08/20 08:05:35;;;;;;;12.90;11.43;;;17.30;99.90;;;;;;5051450;28;20177;-67
2021/08/20 08:08:03;;;;;;;8.20;7.40;;;17.40;99.90;;;;;;5051848;28;20216;-67
2021/08/20 08:10:29;;;;;;;10.83;8.23;;;17.60;99.90;;;;;;5050430;28;20174;-67
2021/08/20 08:12:55;;;;;;;8.23;7.17;;;17.70;99.90;;;;;;5050841;28;20829;-68
2021/08/20 08:15:20;;;;;;;9.37;7.23;;;17.50;99.90;;;;;;5049317;28;20176;-69
2021/08/20 08:17:46;;;;;;;8.70;6.30;;;17.50;99.90;;;;;;5050218;28;20977;-68
2021/08/20 08:20:13;;;;;;;9.90;7.37;;;17.60;99.90;;;;;;5051174;28;20568;-68
2021/08/20 08:22:39;;;;;;;7.53;6.83;;;17.40;99.90;;;;;;5050758;28;20251;-68
2021/08/20 08:25:05;;;;;;;6.43;5.80;;;17.50;99.90;;;;;;5050750;28;20904;-69
2021/08/20 08:27:31;;;;;;;7.90;7.10;;;17.40;99.90;;;;;;5050117;28;20297;-68
2021/08/20 08:29:57;;;;;;;11.13;7.47;;;17.50;99.90;;;;;;5050782;28;20403;-68
2021/08/20 08:32:23;;;;;;;7.30;6.20;;;17.30;99.90;;;;;;5050443;28;20533;-68
2021/08/20 08:34:49;;;;;;;6.97;6.37;;;17.30;99.90;;;;;;5050691;28;20208;-69
2021/08/20 08:37:14;;;;;;;8.73;7.77;;;17.50;99.90;;;;;;5050525;28;20416;-68
2021/08/20 08:39:40;;;;;;;9.83;7.10;;;17.60;99.90;;;;;;5050655;28;20266;-68
2021/08/20 08:42:06;;;;;;;11.77;6.80;;;17.50;99.90;;;;;;5049613;28;20243;-68
2021/08/20 08:44:34;;;;;;;8.80;7.87;;;17.40;99.90;;;;;;5050858;28;20257;-68
2021/08/20 08:47:02;;;;;;;10.40;7.33;;;17.30;99.90;;;;;;5050190;28;20864;-68
2021/08/20 08:49:29;;;;;;;10.97;7.70;;;17.10;99.90;;;;;;5050757;28;20411;-68
2021/08/20 08:51:54;;;;;;;16.83;7.03;;;17.10;99.90;;;;;;5050730;28;20953;-68
2021/08/20 08:54:20;;;;;;;11.33;7.37;;;17.20;99.90;;;;;;5054191;28;20488;-68
2021/08/20 08:56:47;;;;;;;8.80;7.50;;;17.40;99.90;;;;;;5055134;28;20172;-68
2021/08/20 08:59:13;;;;;;;9.80;8.60;;;17.30;99.90;;;;;;5055516;28;20176;-68
2021/08/20 09:01:39;;;;;;;11.70;8.73;;;17.50;99.90;;;;;;5054671;28;20434;-67
2021/08/20 09:04:21;;;;;;;9.60;8.60;;;17.60;99.90;;;;;;5054240;28;20948;-67
2021/08/20 09:06:53;;;;;;;10.40;9.33;;;17.70;99.90;;;;;;5054257;28;20549;-67
2021/08/20 09:09:23;;;;;;;10.77;9.30;;;17.60;99.90;;;;;;5047459;28;20475;-67
2021/08/20 09:11:54;;;;;;;10.20;7.20;;;17.70;99.90;;;;;;5053772;28;20482;-68
2021/08/20 09:14:19;;;;;;;7.97;7.13;;;17.90;99.90;;;;;;5053982;28;20452;-67
2021/08/20 09:16:47;;;;;;;9.47;8.60;;;17.70;99.90;;;;;;5053877;28;20405;-67
2021/08/20 09:19:14;;;;;;;8.87;8.03;;;17.90;99.90;;;;;;5053939;28;20166;-67
2021/08/20 09:21:41;;;;;;;8.60;7.50;;;17.80;99.90;;;;;;5053876;28;20468;-67
2021/08/20 09:24:30;;;;;;;10.53;8.37;;;17.90;99.90;;;;;;5053981;28;20417;-67
2021/08/20 09:27:18;;;;;;;8.40;7.03;;;18.30;99.90;;;;;;5053650;28;20489;-67
2021/08/20 09:30:10;;;;;;;9.90;6.60;;;18.30;99.90;;;;;;5053806;28;20829;-67
2021/08/20 09:32:43;;;;;;;14.53;8.13;;;18.30;99.90;;;;;;5050355;28;20445;-68
2021/08/20 09:35:09;;;;;;;7.63;6.93;;;18.40;99.90;;;;;;5053685;28;20404;-67
2021/08/20 09:37:36;;;;;;;13.87;9.43;;;18.30;99.90;;;;;;5052888;28;20490;-69
2021/08/20 09:40:07;;;;;;;8.77;7.50;;;18.50;99.90;;;;;;5053493;28;20404;-68
2021/08/20 09:42:34;;;;;;;9.03;6.37;;;18.70;99.90;;;;;;5053479;28;20423;-68
2021/08/20 09:45:19;;;;;;;7.37;5.60;;;18.50;99.90;;;;;;5049935;28;20401;-68
2021/08/20 09:47:50;;;;;;;9.63;5.07;;;18.60;99.90;;;;;;5053215;28;20427;-69
2021/08/20 09:50:19;;;;;;;4.70;3.93;;;19.00;99.90;;;;;;5037728;28;20500;-68
2021/08/20 09:52:44;;;;;;;5.47;3.37;;;19.30;99.90;;;;;;5041853;28;20422;-68
2021/08/20 09:55:10;;;;;;;4.50;2.87;;;19.20;99.90;;;;;;5053697;28;20420;-68
2021/08/20 09:57:38;;;;;;;3.93;2.60;;;18.90;99.90;;;;;;5052886;28;20165;-68
2021/08/20 10:00:09;;;;;;;2.17;1.87;;;19.10;99.90;;;;;;5053958;28;20251;-68
2021/08/20 10:02:38;;;;;;;2.20;1.93;;;19.10;99.90;;;;;;5057992;28;20426;-68
2021/08/20 10:05:04;;;;;;;2.90;2.33;;;19.20;99.90;;;;;;5063815;28;20484;-68
2021/08/20 10:07:35;;;;;;;3.90;2.07;;;19.70;99.90;;;;;;5055610;28;20825;-68
2021/08/20 10:10:02;;;;;;;2.70;2.40;;;19.10;99.90;;;;;;5063255;28;20433;-68
2021/08/20 10:12:28;;;;;;;4.37;2.10;;;19.70;99.90;;;;;;5055991;28;20565;-71
2021/08/20 10:14:54;;;;;;;2.30;2.10;;;19.80;99.90;;;;;;5055536;28;20500;-68
2021/08/20 10:17:20;;;;;;;1.83;1.73;;;19.70;99.90;;;;;;5055241;28;20406;-69
2021/08/20 10:19:50;;;;;;;3.10;2.10;;;20.30;99.90;;;;;;5056268;28;20261;-69
2021/08/20 10:22:17;;;;;;;3.00;2.60;;;20.70;99.90;;;;;;5063205;28;20938;-69
2021/08/20 10:24:43;;;;;;;3.27;2.70;;;20.90;99.90;;;;;;5054855;28;20921;-68
2021/08/20 10:27:10;;;;;;;3.33;2.63;;;20.20;99.90;;;;;;5053545;28;20411;-68
2021/08/20 10:29:43;;;;;;;3.60;2.90;;;20.90;99.90;;;;;;5053098;28;20740;-68
2021/08/20 10:32:09;;;;;;;5.60;3.50;;;20.20;99.90;;;;;;5052724;28;20431;-70
2021/08/20 10:34:40;;;;;;;4.37;3.97;;;21.10;99.90;;;;;;5052802;28;20460;-67
2021/08/20 10:37:23;;;;;;;4.37;3.97;;;21.10;99.90;;;;;;5052515;28;20812;-68
2021/08/20 10:39:51;;;;;;;3.77;3.47;;;20.60;99.90;;;;;;5040693;28;20443;-68
2021/08/20 10:42:19;;;;;;;3.40;3.10;;;20.40;99.90;;;;;;5032529;28;20420;-68
2021/08/20 10:44:47;;;;;;;8.10;6.93;;;20.80;99.90;;;;;;5035517;28;20463;-69
2021/08/20 10:47:26;;;;;;;5.27;4.67;;;21.60;99.90;;;;;;5052732;28;20413;-68
2021/08/20 10:50:09;;;;;;;4.70;4.30;;;21.50;99.90;;;;;;5052406;28;20417;-68
2021/08/20 10:52:37;;;;;;;5.50;4.63;;;20.60;99.90;;;;;;5052452;28;20430;-68
2021/08/20 10:55:05;;;;;;;26.13;23.23;;;20.80;99.90;;;;;;5052439;28;20399;-69
2021/08/20 10:57:38;;;;;;;6.10;4.60;;;21.40;99.90;;;;;;5052278;28;20503;-69
2021/08/20 11:00:21;;;;;;;8.20;7.20;;;21.30;99.90;;;;;;5052015;28;20434;-68
2021/08/20 11:02:47;;;;;;;4.77;4.37;;;21.40;99.90;;;;;;5051840;28;20945;-67
2021/08/20 11:05:16;;;;;;;4.70;4.30;;;21.20;99.90;;;;;;5052005;28;21017;-68
2021/08/20 11:07:44;;;;;;;4.63;4.10;;;20.60;99.90;;;;;;5052119;28;20400;-68
2021/08/20 11:10:09;;;;;;;5.63;3.80;;;21.30;99.90;;;;;;5051660;28;20411;-68
2021/08/20 11:12:57;;;;;;;4.40;4.00;;;21.30;99.90;;;;;;5051778;28;20538;-68
2021/08/20 11:15:23;;;;;;;5.30;4.13;;;21.60;99.90;;;;;;5050221;28;20216;-67
2021/08/20 11:17:52;;;;;;;3.97;3.60;;;21.90;99.90;;;;;;5052127;28;20422;-68
2021/08/20 11:20:23;;;;;;;4.43;3.40;;;21.60;99.90;;;;;;5051965;28;20549;-70
2021/08/20 11:23:11;;;;;;;4.20;3.90;;;21.80;99.90;;;;;;5044093;28;20483;-70
2021/08/20 11:25:48;;;;;;;5.00;4.43;;;22.10;99.90;;;;;;5032033;28;20392;-68
2021/08/20 11:28:33;;;;;;;4.53;3.43;;;21.30;99.90;;;;;;5033559;28;20398;-68
2021/08/20 11:31:07;;;;;;;6.70;5.00;;;21.90;99.90;;;;;;5051515;28;20396;-69
2021/08/20 11:33:35;;;;;;;4.60;4.20;;;21.80;99.90;;;;;;5051019;28;20998;-68
2021/08/20 11:36:04;;;;;;;5.30;4.90;;;22.00;99.90;;;;;;5050210;28;20415;-69
2021/08/20 11:38:42;;;;;;;14.10;12.13;;;21.90;99.90;;;;;;5043213;28;20405;-68
2021/08/20 11:41:23;;;;;;;5.10;4.60;;;21.70;99.90;;;;;;5051435;28;20395;-68
2021/08/20 11:43:54;;;;;;;5.17;4.77;;;21.60;99.90;;;;;;5048436;28;20853;-68
2021/08/20 11:46:21;;;;;;;7.17;6.13;;;21.30;99.90;;;;;;5047143;28;20408;-69
2021/08/20 11:48:50;;;;;;;6.37;5.70;;;21.50;99.90;;;;;;5051241;28;20416;-68
2021/08/20 11:51:48;;;;;;;5.60;5.10;;;21.20;99.90;;;;;;5051276;28;20844;-68
2021/08/20 11:54:15;;;;;;;6.77;4.93;;;20.90;99.90;;;;;;5038589;28;20478;-68
2021/08/20 11:56:52;;;;;;;5.10;4.70;;;21.40;99.90;;;;;;5051518;28;20410;-68
2021/08/20 11:59:18;;;;;;;5.40;4.90;;;21.10;99.90;;;;;;5051388;28;20410;-68
2021/08/20 12:01:44;;;;;;;5.13;4.63;;;20.80;99.90;;;;;;5051133;28;20801;-68
2021/08/20 12:04:09;;;;;;;5.07;4.67;;;20.90;99.90;;;;;;5051082;28;20196;-71
2021/08/20 12:06:38;;;;;;;6.03;5.23;;;20.60;99.90;;;;;;5051469;28;20164;-70
2021/08/20 12:09:12;;;;;;;7.10;5.07;;;20.60;99.90;;;;;;5052423;28;20596;-69
2021/08/20 12:11:42;;;;;;;6.33;5.10;;;20.70;99.90;;;;;;5053269;28;20941;-69
2021/08/20 12:14:18;;;;;;;4.67;4.20;;;20.70;99.90;;;;;;5053331;28;20817;-68
2021/08/20 12:16:50;;;;;;;7.50;4.47;;;20.60;99.90;;;;;;5055870;28;20404;-68
2021/08/20 12:19:21;;;;;;;12.60;6.30;;;20.60;99.90;;;;;;5053853;28;20788;-69
2021/08/20 12:21:50;;;;;;;7.93;5.97;;;20.60;99.90;;;;;;5052026;28;21109;-68
2021/08/20 12:24:29;;;;;;;5.93;5.20;;;20.20;99.90;;;;;;5050226;28;20414;-69
2021/08/20 12:27:15;;;;;;;5.97;5.37;;;20.30;99.90;;;;;;5051633;28;20469;-68
2021/08/20 12:29:59;;;;;;;6.03;5.17;;;20.20;99.90;;;;;;5055324;28;20405;-68
2021/08/20 12:32:30;;;;;;;10.47;6.30;;;20.30;99.90;;;;;;5055546;28;20833;-68
2021/08/20 12:34:58;;;;;;;7.60;6.37;;;20.10;99.90;;;;;;5039535;28;20463;-69
2021/08/20 12:37:24;;;;;;;13.63;8.10;;;20.30;99.90;;;;;;5037941;28;20480;-68
2021/08/20 12:40:05;;;;;;;6.60;5.87;;;20.20;99.90;;;;;;5055473;28;20409;-68
2021/08/20 12:42:31;;;;;;;5.50;5.10;;;20.60;99.90;;;;;;5045606;28;20464;-68
2021/08/20 12:45:29;;;;;;;10.07;6.80;;;21.50;99.90;;;;;;5039540;28;20447;-70